sensor_id;sensor_type;location;lat;lon;timestamp;P1;durP1;ratioP1;P2;durP2;ratioP2
54917;SDS011;40818;50.562;7.454;2022-08-19T00:00:49;6.05;;;3.90;;
54917;SDS011;40818;50.562;7.454;2022-08-19T00:05:55;8.57;;;4.07;;
54917;SDS011;40818;50.562;7.454;2022-08-19T00:10:59;6.18;;;4.32;;
54917;SDS011;40818;50.562;7.454;2022-08-19T00:16:03;9.57;;;3.78;;
54917;SDS011;40818;50.562;7.454;2022-08-19T05:25:39;27.58;;;20.98;;
54917;SDS011;40818;50.562;7.454;2022-08-19T05:30:43;35.13;;;24.10;;
54917;SDS011;40818;50.562;7.454;2022-08-19T05:35:46;31.15;;;22.75;;
54917;SDS011;40818;50.562;7.454;2022-08-19T05:40:53;28.52;;;20.38;;
54917;SDS011;40818;50.562;7.454;2022-08-19T05:45:56;26.92;;;20.17;;
54917;SDS011;40818;50.562;7.454;2022-08-19T05:51:02;29.65;;;22.63;;
54917;SDS011;40818;50.562;7.454;2022-08-19T05:56:11;30.15;;;23.45;;
54917;SDS011;40818;50.562;7.454;2022-08-19T06:01:17;26.65;;;21.90;;
54917;SDS011;40818;50.562;7.454;2022-08-19T06:06:21;31.40;;;22.25;;
54917;SDS011;40818;50.562;7.454;2022-08-19T06:11:32;25.50;;;20.70;;
54917;SDS011;40818;50.562;7.454;2022-08-19T06:16:38;27.77;;;20.92;;
54917;SDS011;40818;50.562;7.454;2022-08-19T06:21:43;27.83;;;22.63;;
54917;SDS011;40818;50.562;7.454;2022-08-19T06:26:51;30.08;;;23.65;;
54917;SDS011;40818;50.562;7.454;2022-08-19T06:31:57;28.00;;;23.77;;
54917;SDS011;40818;50.562;7.454;2022-08-19T06:37:02;25.75;;;20.98;;
54917;SDS011;40818;50.562;7.454;2022-08-19T06:42:09;29.83;;;22.60;;
54917;SDS011;40818;50.562;7.454;2022-08-19T06:47:17;25.57;;;22.33;;
54917;SDS011;40818;50.562;7.454;2022-08-19T06:52:22;25.23;;;18.38;;
54917;SDS011;40818;50.562;7.454;2022-08-19T06:57:28;30.38;;;20.77;;
54917;SDS011;40818;50.562;7.454;2022-08-19T07:02:33;27.83;;;20.45;;
54917;SDS011;40818;50.562;7.454;2022-08-19T07:07:37;24.17;;;20.30;;
54917;SDS011;40818;50.562;7.454;2022-08-19T07:12:45;24.25;;;19.92;;
54917;SDS011;40818;50.562;7.454;2022-08-19T07:17:50;26.75;;;20.98;;
54917;SDS011;40818;50.562;7.454;2022-08-19T07:22:53;22.63;;;19.52;;
54917;SDS011;40818;50.562;7.454;2022-08-19T07:27:59;27.92;;;21.13;;
54917;SDS011;40818;50.562;7.454;2022-08-19T07:33:03;24.63;;;19.88;;
54917;SDS011;40818;50.562;7.454;2022-08-19T07:38:06;25.23;;;20.95;;
54917;SDS011;40818;50.562;7.454;2022-08-19T07:43:13;21.15;;;18.23;;
54917;SDS011;40818;50.562;7.454;2022-08-19T07:48:18;29.42;;;21.13;;
54917;SDS011;40818;50.562;7.454;2022-08-19T07:53:25;24.85;;;18.58;;
54917;SDS011;40818;50.562;7.454;2022-08-19T07:58:32;26.55;;;19.10;;
54917;SDS011;40818;50.562;7.454;2022-08-19T08:03:39;25.38;;;17.63;;
54917;SDS011;40818;50.562;7.454;2022-08-19T08:08:55;22.98;;;17.55;;
54917;SDS011;40818;50.562;7.454;2022-08-19T08:14:23;21.98;;;16.60;;
54917;SDS011;40818;50.562;7.454;2022-08-19T08:19:28;21.67;;;13.63;;
54917;SDS011;40818;50.562;7.454;2022-08-19T08:24:32;15.77;;;11.85;;
54917;SDS011;40818;50.562;7.454;2022-08-19T08:29:38;20.70;;;12.60;;
54917;SDS011;40818;50.562;7.454;2022-08-19T08:34:42;20.25;;;11.00;;
54917;SDS011;40818;50.562;7.454;2022-08-19T08:39:45;14.35;;;10.07;;
54917;SDS011;40818;50.562;7.454;2022-08-19T08:44:53;10.32;;;7.07;;
54917;SDS011;40818;50.562;7.454;2022-08-19T08:50:03;15.45;;;6.10;;
54917;SDS011;40818;50.562;7.454;2022-08-19T08:55:13;9.05;;;2.92;;
54917;SDS011;40818;50.562;7.454;2022-08-19T09:00:23;10.05;;;4.00;;
54917;SDS011;40818;50.562;7.454;2022-08-19T09:05:32;7.72;;;3.28;;
54917;SDS011;40818;50.562;7.454;2022-08-19T09:10:44;4.65;;;2.30;;
54917;SDS011;40818;50.562;7.454;2022-08-19T09:15:55;6.38;;;4.20;;
54917;SDS011;40818;50.562;7.454;2022-08-19T09:21:04;13.13;;;3.30;;
54917;SDS011;40818;50.562;7.454;2022-08-19T09:26:08;6.72;;;1.80;;
54917;SDS011;40818;50.562;7.454;2022-08-19T09:31:17;6.05;;;3.40;;
54917;SDS011;40818;50.562;7.454;2022-08-19T09:36:23;5.93;;;2.15;;
54917;SDS011;40818;50.562;7.454;2022-08-19T09:41:28;10.45;;;4.75;;
54917;SDS011;40818;50.562;7.454;2022-08-19T09:46:35;10.60;;;4.20;;
54917;SDS011;40818;50.562;7.454;2022-08-19T09:51:38;10.13;;;6.63;;
54917;SDS011;40818;50.562;7.454;2022-08-19T09:56:42;8.38;;;4.68;;
54917;SDS011;40818;50.562;7.454;2022-08-19T10:01:48;13.50;;;8.82;;
54917;SDS011;40818;50.562;7.454;2022-08-19T10:06:55;11.40;;;6.03;;
54917;SDS011;40818;50.562;7.454;2022-08-19T10:11:58;6.03;;;3.30;;
54917;SDS011;40818;50.562;7.454;2022-08-19T10:17:04;11.27;;;4.38;;
54917;SDS011;40818;50.562;7.454;2022-08-19T10:22:08;6.78;;;4.50;;
54917;SDS011;40818;50.562;7.454;2022-08-19T10:27:14;8.43;;;6.15;;
54917;SDS011;40818;50.562;7.454;2022-08-19T10:32:20;10.52;;;6.00;;
54917;SDS011;40818;50.562;7.454;2022-08-19T10:37:25;4.82;;;3.35;;
54917;SDS011;40818;50.562;7.454;2022-08-19T10:42:31;5.30;;;3.72;;
54917;SDS011;40818;50.562;7.454;2022-08-19T10:47:37;7.68;;;5.30;;
54917;SDS011;40818;50.562;7.454;2022-08-19T10:52:41;8.38;;;3.28;;
54917;SDS011;40818;50.562;7.454;2022-08-19T10:57:45;8.65;;;3.28;;
54917;SDS011;40818;50.562;7.454;2022-08-19T11:02:51;6.93;;;2.92;;
54917;SDS011;40818;50.562;7.454;2022-08-19T11:07:55;9.15;;;4.93;;
54917;SDS011;40818;50.562;7.454;2022-08-19T11:12:59;5.00;;;2.20;;
54917;SDS011;40818;50.562;7.454;2022-08-19T11:18:05;9.10;;;3.28;;
54917;SDS011;40818;50.562;7.454;2022-08-19T11:23:09;4.45;;;1.90;;
54917;SDS011;40818;50.562;7.454;2022-08-19T11:28:12;3.10;;;1.40;;
54917;SDS011;40818;50.562;7.454;2022-08-19T11:33:18;5.90;;;2.72;;
54917;SDS011;40818;50.562;7.454;2022-08-19T11:38:22;8.00;;;5.45;;
54917;SDS011;40818;50.562;7.454;2022-08-19T11:43:25;5.35;;;2.58;;
54917;SDS011;40818;50.562;7.454;2022-08-19T11:48:33;7.97;;;3.28;;
54917;SDS011;40818;50.562;7.454;2022-08-19T11:53:38;8.07;;;3.78;;
54917;SDS011;40818;50.562;7.454;2022-08-19T11:58:42;5.10;;;2.30;;
54917;SDS011;40818;50.562;7.454;2022-08-19T12:03:49;6.22;;;3.42;;
54917;SDS011;40818;50.562;7.454;2022-08-19T12:08:54;4.65;;;1.50;;
54917;SDS011;40818;50.562;7.454;2022-08-19T12:13:58;4.65;;;1.80;;
54917;SDS011;40818;50.562;7.454;2022-08-19T12:19:04;8.57;;;2.40;;
54917;SDS011;40818;50.562;7.454;2022-08-19T12:24:08;3.45;;;1.50;;
54917;SDS011;40818;50.562;7.454;2022-08-19T12:29:11;5.10;;;1.60;;
54917;SDS011;40818;50.562;7.454;2022-08-19T12:34:17;10.25;;;2.00;;
54917;SDS011;40818;50.562;7.454;2022-08-19T12:39:21;4.82;;;1.00;;
54917;SDS011;40818;50.562;7.454;2022-08-19T12:44:25;6.22;;;1.80;;
54917;SDS011;40818;50.562;7.454;2022-08-19T12:49:32;4.53;;;1.10;;
54917;SDS011;40818;50.562;7.454;2022-08-19T12:54:37;3.85;;;0.98;;
54917;SDS011;40818;50.562;7.454;2022-08-19T12:59:40;2.38;;;0.90;;
54917;SDS011;40818;50.562;7.454;2022-08-19T13:04:47;3.35;;;0.80;;
54917;SDS011;40818;50.562;7.454;2022-08-19T13:09:51;2.80;;;0.90;;
54917;SDS011;40818;50.562;7.454;2022-08-19T13:14:55;4.63;;;0.77;;
54917;SDS011;40818;50.562;7.454;2022-08-19T13:20:01;2.10;;;0.80;;
54917;SDS011;40818;50.562;7.454;2022-08-19T13:25:07;2.20;;;0.80;;
54917;SDS011;40818;50.562;7.454;2022-08-19T13:30:12;2.35;;;0.90;;
54917;SDS011;40818;50.562;7.454;2022-08-19T13:35:34;4.55;;;1.60;;
54917;SDS011;40818;50.562;7.454;2022-08-19T13:40:38;4.97;;;0.88;;
54917;SDS011;40818;50.562;7.454;2022-08-19T13:45:42;13.15;;;1.00;;
54917;SDS011;40818;50.562;7.454;2022-08-19T13:50:48;3.38;;;1.10;;
54917;SDS011;40818;50.562;7.454;2022-08-19T13:55:51;2.30;;;0.90;;
54917;SDS011;40818;50.562;7.454;2022-08-19T14:00:55;2.83;;;0.88;;
54917;SDS011;40818;50.562;7.454;2022-08-19T14:06:01;3.10;;;1.00;;
54917;SDS011;40818;50.562;7.454;2022-08-19T14:11:05;8.23;;;1.00;;
54917;SDS011;40818;50.562;7.454;2022-08-19T14:16:09;2.25;;;0.95;;
54917;SDS011;40818;50.562;7.454;2022-08-19T14:21:19;3.47;;;1.10;;
54917;SDS011;40818;50.562;7.454;2022-08-19T14:26:25;5.45;;;1.30;;
54917;SDS011;40818;50.562;7.454;2022-08-19T14:31:28;3.53;;;1.17;;
54917;SDS011;40818;50.562;7.454;2022-08-19T14:36:34;3.28;;;1.20;;
54917;SDS011;40818;50.562;7.454;2022-08-19T14:41:39;3.10;;;1.60;;
54917;SDS011;40818;50.562;7.454;2022-08-19T14:46:45;3.13;;;1.33;;
54917;SDS011;40818;50.562;7.454;2022-08-19T14:51:51;4.93;;;1.50;;
54917;SDS011;40818;50.562;7.454;2022-08-19T14:56:54;4.03;;;1.55;;
54917;SDS011;40818;50.562;7.454;2022-08-19T15:01:58;8.60;;;1.10;;
54917;SDS011;40818;50.562;7.454;2022-08-19T15:07:04;4.07;;;1.30;;
54917;SDS011;40818;50.562;7.454;2022-08-19T15:12:08;2.95;;;0.95;;
54917;SDS011;40818;50.562;7.454;2022-08-19T15:17:11;3.42;;;1.30;;
54917;SDS011;40818;50.562;7.454;2022-08-19T15:22:17;2.92;;;1.10;;
54917;SDS011;40818;50.562;7.454;2022-08-19T15:27:20;4.70;;;1.90;;
54917;SDS011;40818;50.562;7.454;2022-08-19T15:32:24;4.50;;;1.13;;
54917;SDS011;40818;50.562;7.454;2022-08-19T15:37:31;9.95;;;1.52;;
54917;SDS011;40818;50.562;7.454;2022-08-19T15:42:34;4.15;;;1.10;;
54917;SDS011;40818;50.562;7.454;2022-08-19T15:47:41;3.33;;;0.98;;
54917;SDS011;40818;50.562;7.454;2022-08-19T15:52:48;6.03;;;1.10;;
54917;SDS011;40818;50.562;7.454;2022-08-19T15:57:52;5.03;;;1.10;;
54917;SDS011;40818;50.562;7.454;2022-08-19T16:03:09;9.30;;;2.30;;
54917;SDS011;40818;50.562;7.454;2022-08-19T16:08:31;3.45;;;1.35;;
54917;SDS011;40818;50.562;7.454;2022-08-19T16:13:34;5.45;;;1.50;;
54917;SDS011;40818;50.562;7.454;2022-08-19T16:18:38;4.47;;;1.65;;
54917;SDS011;40818;50.562;7.454;2022-08-19T16:23:45;8.00;;;1.13;;
54917;SDS011;40818;50.562;7.454;2022-08-19T16:28:50;4.97;;;1.92;;
54917;SDS011;40818;50.562;7.454;2022-08-19T16:33:54;4.32;;;1.85;;
54917;SDS011;40818;50.562;7.454;2022-08-19T16:39:01;8.77;;;2.15;;
54917;SDS011;40818;50.562;7.454;2022-08-19T16:44:04;4.63;;;1.52;;
54917;SDS011;40818;50.562;7.454;2022-08-19T16:49:09;7.20;;;1.30;;
54917;SDS011;40818;50.562;7.454;2022-08-19T16:54:16;3.08;;;0.98;;
54917;SDS011;40818;50.562;7.454;2022-08-19T16:59:20;9.27;;;0.75;;
54917;SDS011;40818;50.562;7.454;2022-08-19T17:04:24;3.50;;;0.70;;
54917;SDS011;40818;50.562;7.454;2022-08-19T17:09:31;3.03;;;0.70;;
54917;SDS011;40818;50.562;7.454;2022-08-19T17:14:34;3.47;;;0.70;;
54917;SDS011;40818;50.562;7.454;2022-08-19T17:19:38;1.55;;;0.50;;
54917;SDS011;40818;50.562;7.454;2022-08-19T17:24:46;2.80;;;0.52;;
54917;SDS011;40818;50.562;7.454;2022-08-19T17:29:49;1.83;;;0.50;;
54917;SDS011;40818;50.562;7.454;2022-08-19T17:34:53;3.83;;;0.50;;
54917;SDS011;40818;50.562;7.454;2022-08-19T17:39:59;3.17;;;0.50;;
54917;SDS011;40818;50.562;7.454;2022-08-19T17:45:03;3.33;;;0.50;;
54917;SDS011;40818;50.562;7.454;2022-08-19T17:50:09;3.33;;;0.50;;
54917;SDS011;40818;50.562;7.454;2022-08-19T17:55:16;3.97;;;0.50;;
54917;SDS011;40818;50.562;7.454;2022-08-19T18:00:21;3.17;;;0.60;;
54917;SDS011;40818;50.562;7.454;2022-08-19T18:05:25;3.85;;;0.50;;
54917;SDS011;40818;50.562;7.454;2022-08-19T18:10:32;3.80;;;0.60;;
54917;SDS011;40818;50.562;7.454;2022-08-19T18:15:37;5.70;;;0.50;;
54917;SDS011;40818;50.562;7.454;2022-08-19T18:20:40;2.95;;;0.50;;
54917;SDS011;40818;50.562;7.454;2022-08-19T18:25:46;3.75;;;0.50;;
54917;SDS011;40818;50.562;7.454;2022-08-19T18:30:50;7.93;;;0.60;;
54917;SDS011;40818;50.562;7.454;2022-08-19T18:35:55;11.13;;;5.60;;
54917;SDS011;40818;50.562;7.454;2022-08-19T18:41:01;1.85;;;0.57;;
54917;SDS011;40818;50.562;7.454;2022-08-19T18:46:18;2.00;;;0.47;;
54917;SDS011;40818;50.562;7.454;2022-08-19T18:51:34;3.78;;;0.43;;
54917;SDS011;40818;50.562;7.454;2022-08-19T18:56:40;1.55;;;0.30;;
54917;SDS011;40818;50.562;7.454;2022-08-19T19:01:44;1.52;;;0.35;;
54917;SDS011;40818;50.562;7.454;2022-08-19T19:06:51;1.23;;;0.30;;
54917;SDS011;40818;50.562;7.454;2022-08-19T19:11:59;2.03;;;0.40;;
54917;SDS011;40818;50.562;7.454;2022-08-19T19:17:05;4.57;;;0.40;;
54917;SDS011;40818;50.562;7.454;2022-08-19T19:22:11;1.15;;;0.40;;
54917;SDS011;40818;50.562;7.454;2022-08-19T19:27:21;1.05;;;0.32;;
54917;SDS011;40818;50.562;7.454;2022-08-19T19:32:25;2.97;;;0.40;;
54917;SDS011;40818;50.562;7.454;2022-08-19T19:37:35;1.75;;;0.30;;
54917;SDS011;40818;50.562;7.454;2022-08-19T19:42:41;1.00;;;0.40;;
54917;SDS011;40818;50.562;7.454;2022-08-19T19:47:45;3.90;;;0.40;;
54917;SDS011;40818;50.562;7.454;2022-08-19T19:52:49;1.45;;;0.50;;
54917;SDS011;40818;50.562;7.454;2022-08-19T19:57:57;0.88;;;0.43;;
54917;SDS011;40818;50.562;7.454;2022-08-19T20:03:00;6.28;;;0.40;;
54917;SDS011;40818;50.562;7.454;2022-08-19T20:08:04;6.00;;;0.50;;
54917;SDS011;40818;50.562;7.454;2022-08-19T20:13:23;3.78;;;0.75;;
54917;SDS011;40818;50.562;7.454;2022-08-19T20:18:26;1.95;;;0.40;;
54917;SDS011;40818;50.562;7.454;2022-08-19T20:23:30;2.17;;;0.40;;
54917;SDS011;40818;50.562;7.454;2022-08-19T20:28:36;1.20;;;0.40;;
54917;SDS011;40818;50.562;7.454;2022-08-19T20:33:40;1.60;;;0.40;;
54917;SDS011;40818;50.562;7.454;2022-08-19T20:38:43;1.45;;;0.32;;
54917;SDS011;40818;50.562;7.454;2022-08-19T20:43:49;1.00;;;0.40;;
54917;SDS011;40818;50.562;7.454;2022-08-19T20:48:53;2.22;;;0.43;;
54917;SDS011;40818;50.562;7.454;2022-08-19T20:53:57;4.32;;;0.40;;
54917;SDS011;40818;50.562;7.454;2022-08-19T20:59:04;1.35;;;0.40;;
54917;SDS011;40818;50.562;7.454;2022-08-19T21:04:09;2.10;;;0.50;;
54917;SDS011;40818;50.562;7.454;2022-08-19T21:09:13;2.38;;;0.47;;
54917;SDS011;40818;50.562;7.454;2022-08-19T21:14:19;2.65;;;0.40;;
54917;SDS011;40818;50.562;7.454;2022-08-19T21:19:22;2.28;;;0.50;;
54917;SDS011;40818;50.562;7.454;2022-08-19T21:24:25;1.60;;;0.40;;
54917;SDS011;40818;50.562;7.454;2022-08-19T21:29:32;1.42;;;0.43;;
54917;SDS011;40818;50.562;7.454;2022-08-19T21:34:38;5.60;;;0.35;;
54917;SDS011;40818;50.562;7.454;2022-08-19T21:39:41;1.05;;;0.40;;
54917;SDS011;40818;50.562;7.454;2022-08-19T21:44:47;2.47;;;0.40;;
54917;SDS011;40818;50.562;7.454;2022-08-19T21:49:51;1.80;;;0.30;;
54917;SDS011;40818;50.562;7.454;2022-08-19T21:54:54;0.60;;;0.30;;
54917;SDS011;40818;50.562;7.454;2022-08-19T22:00:01;0.63;;;0.20;;
54917;SDS011;40818;50.562;7.454;2022-08-19T22:05:06;0.93;;;0.20;;
54917;SDS011;40818;50.562;7.454;2022-08-19T22:10:10;0.60;;;0.30;;
54917;SDS011;40818;50.562;7.454;2022-08-19T22:15:16;0.40;;;0.20;;
54917;SDS011;40818;50.562;7.454;2022-08-19T22:20:22;1.05;;;0.20;;
54917;SDS011;40818;50.562;7.454;2022-08-19T22:25:28;0.60;;;0.20;;
54917;SDS011;40818;50.562;7.454;2022-08-19T22:30:36;1.05;;;0.20;;
54917;SDS011;40818;50.562;7.454;2022-08-19T22:35:40;2.95;;;0.20;;
54917;SDS011;40818;50.562;7.454;2022-08-19T22:40:46;0.45;;;0.20;;
54917;SDS011;40818;50.562;7.454;2022-08-19T22:45:53;0.55;;;0.10;;
54917;SDS011;40818;50.562;7.454;2022-08-19T22:50:57;0.40;;;0.17;;
54917;SDS011;40818;50.562;7.454;2022-08-19T22:56:14;0.35;;;0.10;;
54917;SDS011;40818;50.562;7.454;2022-08-19T23:01:22;0.57;;;0.20;;
54917;SDS011;40818;50.562;7.454;2022-08-19T23:06:26;0.57;;;0.10;;
54917;SDS011;40818;50.562;7.454;2022-08-19T23:11:30;0.85;;;0.20;;
54917;SDS011;40818;50.562;7.454;2022-08-19T23:16:37;1.40;;;0.10;;
54917;SDS011;40818;50.562;7.454;2022-08-19T23:21:41;0.35;;;0.10;;
54917;SDS011;40818;50.562;7.454;2022-08-19T23:26:44;0.30;;;0.10;;
54917;SDS011;40818;50.562;7.454;2022-08-19T23:32:03;0.45;;;0.20;;
54917;SDS011;40818;50.562;7.454;2022-08-19T23:37:07;0.82;;;0.20;;
54917;SDS011;40818;50.562;7.454;2022-08-19T23:42:10;1.23;;;0.30;;
54917;SDS011;40818;50.562;7.454;2022-08-19T23:47:17;0.85;;;0.20;;
54917;SDS011;40818;50.562;7.454;2022-08-19T23:52:20;2.50;;;0.40;;
54917;SDS011;40818;50.562;7.454;2022-08-19T23:57:23;0.75;;;0.30;;
